Goodville, Texas
Current Conditions -  °F | °C
As of 4:35 PM on Saturday 25 Oct 2014 (Local Time) from KTPL Reporting Station
Clear Clear  
Wind Chill: 29°   Ceiling: Unl
Heat Index: 29°   Visibility: 10mi
Dew Point: 14°   Wind: 5mph
Humidity: 40%   Direction: 140°SE
Pressure: 30.08"   Gusts: NA
Location:  31.1912°N, 97.0719°W
Report Text: KTPL 252135Z AUTO 14004KT 10SM CLR 29/14 A3008 RMK AO1
Loading
Personal Weather Stations






























Interactive Weather Map
Tropical Storm Tracking
New forecast layout! Learn more

10-Day Weather Forecast

Advertisements
Track Severe Weather on mobile